Time;durP1;ratioP1;P1;durP2;ratioP2;P2;SDS_P1;SDS_P2;PMS_P1;PMS_P2;Temp;Humidity;BMP_temperature;BMP_pressure;BME280_temperature;BME280_humidity;BME280_pressure;Samples;Min_cycle;Max_cycle;Signal;HPM_P1;HPM_P2
2022/12/18 00:00:42;;;;;;;13.25;6.45;;;;;;;-1.77;78.07;99474.94;5034541;28;20049;-77
2022/12/18 00:03:09;;;;;;;19.33;8.25;;;;;;;-1.88;78.08;99452.47;5034831;28;20048;-80
2022/12/18 00:05:45;;;;;;;16.33;7.55;;;;;;;-1.90;78.27;99454.09;5035169;28;20132;-77
2022/12/18 00:08:11;;;;;;;16.80;7.43;;;;;;;-1.83;78.97;99456.03;5036503;28;20101;-80
2022/12/18 00:10:37;;;;;;;17.15;7.63;;;;;;;-1.91;77.39;99456.56;5039544;28;20095;-79
2022/12/18 00:13:03;;;;;;;15.75;7.22;;;;;;;-1.87;78.33;99449.06;5017399;28;20037;-80
2022/12/18 00:15:29;;;;;;;14.00;7.53;;;;;;;-1.93;78.07;99440.34;5035425;28;20053;-78
2022/12/18 00:17:55;;;;;;;13.88;5.85;;;;;;;-2.08;78.50;99423.69;5020373;28;20095;-80
2022/12/18 00:20:25;;;;;;;16.25;7.60;;;;;;;-2.12;77.85;99407.41;5038065;28;20428;-80
2022/12/18 00:22:54;;;;;;;16.38;7.97;;;;;;;-1.88;78.67;99438.81;5048577;28;20045;-79
2022/12/18 00:25:22;;;;;;;18.00;8.13;;;;;;;-2.02;79.17;99398.41;5068902;28;20128;-79
2022/12/18 00:27:48;;;;;;;18.33;7.05;;;;;;;-2.10;78.35;99389.63;5050556;28;20413;-77
2022/12/18 00:30:14;;;;;;;16.10;7.78;;;;;;;-2.06;78.93;99385.47;5052353;28;20053;-79
2022/12/18 00:32:40;;;;;;;15.40;7.78;;;;;;;-2.12;78.86;99384.47;5071629;28;20021;-78
2022/12/18 00:35:07;;;;;;;16.05;7.70;;;;;;;-1.89;78.89;99415.03;5059055;28;20028;-79
2022/12/18 00:37:34;;;;;;;15.32;6.97;;;;;;;-2.14;77.62;99380.09;5074243;28;20045;-78
2022/12/18 00:40:01;;;;;;;15.60;7.47;;;;;;;-2.05;78.76;99398.31;5055573;28;20051;-78
2022/12/18 00:45:15;;;;;;;18.20;8.00;;;;;;;-2.05;78.17;99397.41;5057028;28;20101;-80
2022/12/18 00:47:41;;;;;;;16.48;8.27;;;;;;;-2.29;78.15;99373.66;5054969;28;20045;-78
2022/12/18 00:50:07;;;;;;;17.48;7.90;;;;;;;-2.23;79.25;99365.34;5054605;28;20069;-77
2022/12/18 00:52:34;;;;;;;20.02;9.10;;;;;;;-2.08;79.04;99375.22;5038637;28;20041;-78
2022/12/18 00:55:00;;;;;;;17.50;8.65;;;;;;;-2.00;78.97;99371.28;5056561;28;20037;-77
2022/12/18 00:57:26;;;;;;;19.65;9.00;;;;;;;-2.02;79.43;99347.41;5051536;28;20072;-79
2022/12/18 00:59:52;;;;;;;16.05;7.85;;;;;;;-2.15;78.08;99330.81;5062584;28;20041;-80
2022/12/18 01:02:18;;;;;;;19.10;9.85;;;;;;;-2.06;78.78;99344.69;5043064;28;20087;-78
2022/12/18 01:04:44;;;;;;;17.92;7.97;;;;;;;-2.14;78.69;99347.84;5039634;28;20045;-81
2022/12/18 01:07:10;;;;;;;15.52;8.15;;;;;;;-2.14;79.00;99352.06;5058449;28;20042;-80
2022/12/18 01:10:00;;;;;;;19.65;8.93;;;;;;;-1.99;78.45;99364.47;5051186;28;20047;-77
2022/12/18 01:12:26;;;;;;;24.05;11.15;;;;;;;-2.32;78.73;99303.88;5044367;28;20115;-79
2022/12/18 01:14:53;;;;;;;22.15;10.30;;;;;;;-2.46;78.81;99278.75;5041808;28;20037;-80
2022/12/18 01:17:19;;;;;;;24.52;11.15;;;;;;;-2.20;78.93;99311.94;5057596;28;20046;-77
2022/12/18 01:19:45;;;;;;;18.45;10.15;;;;;;;-2.14;79.20;99312.16;5024974;28;20067;-80
2022/12/18 01:22:11;;;;;;;21.35;10.52;;;;;;;-2.02;79.18;99341.41;5041881;28;20107;-79
2022/12/18 01:24:37;;;;;;;22.10;11.73;;;;;;;-1.98;79.27;99333.91;5042294;28;20532;-79
2022/12/18 01:27:03;;;;;;;23.48;11.75;;;;;;;-1.87;79.42;99341.94;5046610;28;20041;-80
2022/12/18 01:29:29;;;;;;;30.40;12.40;;;;;;;-2.06;79.56;99302.22;5040560;28;20021;-77
2022/12/18 01:31:56;;;;;;;18.55;9.68;;;;;;;-2.07;78.43;99308.13;5057535;28;20041;-79
2022/12/18 01:34:23;;;;;;;23.63;12.05;;;;;;;-1.92;79.33;99309.44;5057822;28;20038;-79
2022/12/18 01:36:52;;;;;;;25.02;12.45;;;;;;;-1.79;79.29;99343.88;5057179;28;20037;-81
2022/12/18 01:39:18;;;;;;;20.25;10.57;;;;;;;-1.75;79.66;99335.53;5070132;28;20076;-77
2022/12/18 01:42:01;;;;;;;19.15;10.20;;;;;;;-1.71;79.18;99332.28;5021816;28;20077;-77
2022/12/18 01:44:57;;;;;;;19.35;9.48;;;;;;;-1.76;79.13;99323.59;5023377;28;20045;-77
2022/12/18 01:47:26;;;;;;;15.15;7.93;;;;;;;-1.82;77.84;99329.34;5039515;28;20049;-80
2022/12/18 01:49:53;;;;;;;14.77;8.40;;;;;;;-1.91;79.05;99316.28;5039255;28;20113;-79
2022/12/18 01:52:21;;;;;;;15.40;7.93;;;;;;;-2.30;79.51;99259.75;5024120;28;20041;-77
2022/12/18 01:54:50;;;;;;;14.05;8.32;;;;;;;-1.89;79.44;99315.53;5006755;28;20065;-78
2022/12/18 01:57:16;;;;;;;17.38;8.60;;;;;;;-1.77;78.79;99321.84;4999276;28;20588;-79
2022/12/18 01:59:47;;;;;;;14.63;9.40;;;;;;;-1.85;79.35;99301.19;4998968;28;20468;-77
2022/12/18 02:02:16;;;;;;;14.23;8.73;;;;;;;-1.86;79.24;99287.56;4999509;28;20063;-79
2022/12/18 02:04:43;;;;;;;15.10;8.45;;;;;;;-1.66;79.17;99315.44;5014435;28;20046;-80
2022/12/18 02:07:34;;;;;;;14.30;8.32;;;;;;;-1.67;78.81;99306.03;4997268;28;20140;-79
2022/12/18 02:10:17;;;;;;;14.95;8.57;;;;;;;-1.77;78.83;99297.22;4997109;28;20056;-80
2022/12/18 02:12:58;;;;;;;13.80;7.25;;;;;;;-1.79;78.78;99297.97;5014706;28;20468;-78
2022/12/18 02:15:35;;;;;;;16.50;8.40;;;;;;;-1.75;78.87;99303.22;5011533;28;20140;-80
2022/12/18 02:18:18;;;;;;;13.88;7.63;;;;;;;-1.88;78.80;99288.34;4997252;28;20038;-78
2022/12/18 02:20:49;;;;;;;;;;;;;;;-1.64;79.19;99295.91;5014524;28;20469;-79
2022/12/18 02:23:45;;;;;;;13.23;7.93;;;;;;;-1.58;78.80;99282.50;4981238;28;19921;-80
2022/12/18 02:26:34;;;;;;;15.10;7.40;;;;;;;-1.43;79.80;99293.19;5015275;28;20045;-81
2022/12/18 02:29:08;;;;;;;12.30;6.63;;;;;;;-1.45;78.71;99293.97;5014978;28;20060;-76
2022/12/18 02:31:42;;;;;;;14.07;7.03;;;;;;;-1.58;78.59;99283.34;4997890;28;20424;-76
2022/12/18 02:34:10;;;;;;;13.35;7.00;;;;;;;-1.59;78.75;99268.84;4996241;28;20045;-80
2022/12/18 02:36:41;;;;;;;12.57;6.93;;;;;;;-1.47;78.65;99282.84;4983211;28;20061;-78
2022/12/18 02:39:09;;;;;;;13.18;6.90;;;;;;;-1.32;79.19;99298.63;5013783;28;20118;-78
2022/12/18 02:41:37;;;;;;;14.00;6.88;;;;;;;-1.38;78.85;99300.97;5047285;28;20064;-79
2022/12/18 02:44:09;;;;;;;15.48;6.38;;;;;;;-1.50;78.17;99287.84;5031913;28;20041;-79
2022/12/18 02:46:36;;;;;;;13.13;6.32;;;;;;;-1.43;78.97;99316.16;5015853;28;20099;-78
2022/12/18 02:49:39;;;;;;;11.75;5.88;;;;;;;-1.44;78.34;99316.13;5032030;28;20045;-77
2022/12/18 02:52:14;;;;;;;13.13;5.95;;;;;;;-1.50;78.02;99311.66;5015223;28;20037;-79
2022/12/18 02:54:49;;;;;;;11.48;6.13;;;;;;;-1.43;78.93;99310.16;5032574;28;20539;-80
2022/12/18 02:57:31;;;;;;;11.07;5.90;;;;;;;-1.43;78.59;99322.94;5049294;28;20049;-79
2022/12/18 03:00:12;;;;;;;11.20;5.97;;;;;;;-1.55;78.96;99303.03;5032996;28;20100;-80
2022/12/18 03:02:38;;;;;;;13.00;6.80;;;;;;;-1.45;79.00;99304.19;5032815;28;20068;-77
2022/12/18 03:05:13;;;;;;;12.63;5.72;;;;;;;-1.32;78.69;99295.22;5022778;28;20049;-78
2022/12/18 03:07:55;;;;;;;12.95;6.82;;;;;;;-1.34;78.99;99292.59;5039958;28;20064;-78
2022/12/18 03:10:27;;;;;;;10.90;5.47;;;;;;;-1.37;78.36;99303.59;5057941;28;20065;-77
2022/12/18 03:13:00;;;;;;;10.68;5.90;;;;;;;-1.32;78.04;99305.44;5045151;28;20102;-79
2022/12/18 03:15:34;;;;;;;11.07;6.07;;;;;;;-1.20;79.04;99323.66;5040738;28;20409;-75
2022/12/18 03:19:05;;;;;;;11.00;6.00;;;;;;;-1.36;78.58;99322.31;5035239;28;20045;-77
2022/12/18 03:21:54;;;;;;;11.07;5.70;;;;;;;-1.45;78.75;99319.50;5017210;28;20064;-78
2022/12/18 03:24:22;;;;;;;10.85;5.65;;;;;;;-1.54;78.16;99289.41;5033295;28;20043;-79
2022/12/18 03:26:54;;;;;;;12.38;6.35;;;;;;;-1.41;78.47;99281.34;5016075;28;20034;-78
2022/12/18 03:29:34;;;;;;;11.68;6.32;;;;;;;-1.14;78.96;99321.31;5043496;28;20025;-79
2022/12/18 03:32:26;;;;;;;13.90;5.80;;;;;;;-1.25;78.29;99298.00;5018421;28;20146;-79
2022/12/18 03:34:56;;;;;;;12.65;6.20;;;;;;;-1.29;77.73;99296.16;5048099;28;20089;-80
2022/12/18 03:37:22;;;;;;;10.82;6.20;;;;;;;-1.31;79.05;99294.38;5015087;28;20057;-78
2022/12/18 03:39:48;;;;;;;10.93;5.82;;;;;;;-1.38;77.38;99317.16;5031389;28;20115;-79
2022/12/18 03:42:17;;;;;;;12.32;6.38;;;;;;;-1.69;77.64;99290.66;5047725;28;20045;-81
2022/12/18 03:44:57;;;;;;;9.93;5.40;;;;;;;-1.61;77.10;99318.13;5047751;28;20096;-78
2022/12/18 03:47:46;;;;;;;12.05;6.05;;;;;;;-1.45;78.71;99311.84;5031526;28;20041;-79
2022/12/18 03:50:27;;;;;;;11.18;5.70;;;;;;;-1.43;78.63;99307.63;5016302;28;20041;-79
2022/12/18 03:53:04;;;;;;;12.27;6.65;;;;;;;-1.23;78.66;99333.78;5019343;28;20056;-82
2022/12/18 03:55:34;;;;;;;10.63;6.22;;;;;;;-1.21;78.24;99327.88;5035277;28;20496;-79
2022/12/18 03:58:06;;;;;;;11.63;6.07;;;;;;;-1.26;77.86;99326.91;5052489;28;20122;-78
2022/12/18 04:00:46;;;;;;;11.18;6.05;;;;;;;-1.33;77.78;99324.13;5035909;28;20049;-78
2022/12/18 04:03:14;;;;;;;11.13;5.60;;;;;;;-1.30;77.97;99326.75;5053026;28;20561;-79
2022/12/18 04:05:47;;;;;;;11.25;6.38;;;;;;;-1.29;78.95;99315.72;5025786;28;20033;-76
2022/12/18 04:08:14;;;;;;;11.55;6.00;;;;;;;-1.32;78.53;99307.97;5051415;28;20508;-79
2022/12/18 04:10:44;;;;;;;11.07;6.07;;;;;;;-1.50;77.60;99283.59;5038271;28;20440;-81
2022/12/18 04:13:10;;;;;;;9.10;5.20;;;;;;;-1.52;77.77;99298.88;5075046;28;20026;-79
2022/12/18 04:15:38;;;;;;;9.85;5.70;;;;;;;-1.55;78.10;99303.03;5058673;28;20088;-80
2022/12/18 04:18:07;;;;;;;11.55;5.95;;;;;;;-1.50;78.15;99321.03;5059345;28;20025;-80
2022/12/18 04:20:40;;;;;;;11.48;5.97;;;;;;;-1.39;77.49;99347.75;5029057;28;20037;-77
2022/12/18 04:23:07;;;;;;;10.75;5.47;;;;;;;-1.48;78.41;99348.31;5040914;28;20041;-80
2022/12/18 04:25:33;;;;;;;11.75;5.90;;;;;;;-1.31;78.08;99363.28;5041496;28;20556;-80
2022/12/18 04:28:10;;;;;;;10.23;5.47;;;;;;;-1.45;77.72;99339.91;5041271;28;20562;-80
2022/12/18 04:30:38;;;;;;;9.45;5.43;;;;;;;-1.59;77.37;99334.34;5023541;28;20043;-80
2022/12/18 04:33:11;;;;;;;10.43;5.40;;;;;;;-1.68;77.58;99338.31;5025015;28;20037;-80
2022/12/18 04:35:39;;;;;;;12.18;5.60;;;;;;;-1.56;77.88;99360.84;5043075;28;20041;-78
2022/12/18 04:38:10;;;;;;;11.05;6.25;;;;;;;-1.46;77.84;99373.91;5042986;28;20087;-78
2022/12/18 04:40:38;;;;;;;11.75;6.00;;;;;;;-1.39;77.48;99373.28;5036524;28;20049;-79
2022/12/18 04:43:11;;;;;;;11.38;6.15;;;;;;;-1.63;77.58;99346.13;5044550;28;20059;-80
2022/12/18 04:45:36;;;;;;;10.95;5.30;;;;;;;-1.53;77.68;99368.59;5025512;28;20049;-78
2022/12/18 04:48:03;;;;;;;9.63;5.63;;;;;;;-1.48;78.19;99385.75;5036204;28;20046;-79
2022/12/18 04:50:30;;;;;;;10.95;5.90;;;;;;;-1.53;77.97;99399.22;5036579;28;20126;-78
2022/12/18 04:52:57;;;;;;;11.32;6.07;;;;;;;-1.55;78.29;99395.75;5020720;28;20057;-78
2022/12/18 04:55:22;;;;;;;13.77;5.63;;;;;;;-1.58;78.65;99377.78;5034312;28;20040;-83
2022/12/18 04:57:51;;;;;;;10.48;5.30;;;;;;;-1.47;76.87;99411.31;5001946;28;20124;-80
2022/12/18 05:00:18;;;;;;;11.55;5.80;;;;;;;-1.43;76.83;99419.94;5017658;28;20515;-79
2022/12/18 05:02:44;;;;;;;12.60;5.80;;;;;;;-1.69;77.78;99396.97;5000754;28;20140;-79
2022/12/18 05:05:09;;;;;;;9.63;6.13;;;;;;;-1.77;75.73;99413.69;5017662;28;20124;-78
2022/12/18 05:07:36;;;;;;;12.90;6.38;;;;;;;-1.76;78.43;99390.78;5035078;28;20037;-78
2022/12/18 05:10:04;;;;;;;10.82;5.85;;;;;;;-1.61;77.69;99410.84;5017319;28;20048;-79
2022/12/18 05:12:33;;;;;;;10.73;6.05;;;;;;;-1.82;77.47;99404.19;5017559;28;20080;-79
2022/12/18 05:14:58;;;;;;;8.70;5.15;;;;;;;-1.68;78.00;99444.66;5017034;28;20080;-79
2022/12/18 05:17:25;;;;;;;10.68;5.50;;;;;;;-1.68;78.06;99424.22;5016299;28;20106;-81
2022/12/18 05:19:51;;;;;;;11.27;5.75;;;;;;;-1.71;78.26;99403.72;5017090;28;20038;-79
2022/12/18 05:22:17;;;;;;;10.18;5.53;;;;;;;-1.56;77.86;99428.88;5034112;28;20041;-79
2022/12/18 05:24:43;;;;;;;11.25;6.15;;;;;;;-1.56;78.11;99408.47;5017349;28;20478;-80
2022/12/18 05:27:09;;;;;;;10.18;5.47;;;;;;;-1.48;77.58;99434.25;5034982;28;20037;-79
2022/12/18 05:29:35;;;;;;;10.38;5.50;;;;;;;-1.78;77.42;99396.66;5001122;28;20052;-79
2022/12/18 05:32:01;;;;;;;10.98;5.53;;;;;;;-1.75;77.79;99401.84;5001179;28;20103;-80
2022/12/18 05:34:27;;;;;;;11.43;6.25;;;;;;;-1.52;77.96;99441.78;5024711;28;20022;-80
2022/12/18 05:36:53;;;;;;;10.27;5.70;;;;;;;-1.78;77.75;99422.16;5030628;28;20057;-78
2022/12/18 05:39:19;;;;;;;10.60;5.40;;;;;;;-1.64;77.69;99446.47;5018109;28;20033;-80
2022/12/18 05:41:45;;;;;;;9.85;5.97;;;;;;;-1.63;77.01;99450.75;5016471;28;20053;-80
2022/12/18 05:44:11;;;;;;;11.40;6.03;;;;;;;-1.61;78.18;99454.22;5017067;28;20119;-78
2022/12/18 05:46:41;;;;;;;14.50;6.18;;;;;;;-1.52;77.86;99479.19;5016834;28;20067;-82
2022/12/18 05:49:07;;;;;;;11.27;5.57;;;;;;;-1.74;76.90;99467.38;5016659;28;20069;-79
2022/12/18 05:51:33;;;;;;;11.85;5.82;;;;;;;-1.88;77.78;99452.47;5019280;28;20091;-79
2022/12/18 05:53:59;;;;;;;11.93;6.13;;;;;;;-1.73;78.15;99458.91;5049907;28;20040;-79
2022/12/18 05:56:26;;;;;;;11.20;5.95;;;;;;;-1.53;77.04;99480.00;5032818;28;20033;-80
2022/12/18 05:58:53;;;;;;;10.27;5.85;;;;;;;-1.61;77.38;99502.72;5048392;28;20048;-79
2022/12/18 06:01:24;;;;;;;13.98;6.45;;;;;;;-1.56;77.57;99492.69;5050828;28;20041;-80
2022/12/18 06:03:50;;;;;;;13.18;7.03;;;;;;;-1.40;77.89;99509.38;5016655;28;20041;-78
2022/12/18 06:06:26;;;;;;;11.93;6.32;;;;;;;-1.57;77.80;99479.03;5016749;28;20059;-80
2022/12/18 06:08:53;;;;;;;13.93;6.00;;;;;;;-1.46;77.97;99498.97;5016805;28;20065;-78
2022/12/18 06:11:22;;;;;;;11.77;5.82;;;;;;;-1.57;77.37;99488.41;5033513;28;20064;-79
2022/12/18 06:13:53;;;;;;;11.93;6.07;;;;;;;-1.71;76.37;99486.22;5016567;28;20078;-78
2022/12/18 06:16:21;;;;;;;13.70;6.30;;;;;;;-1.67;77.47;99482.09;5036169;28;20061;-79
2022/12/18 06:18:47;;;;;;;14.10;6.30;;;;;;;-1.50;77.86;99507.34;5022881;28;20527;-78
2022/12/18 06:21:16;;;;;;;11.65;6.05;;;;;;;-1.56;77.25;99500.34;5005775;28;20136;-78
2022/12/18 06:23:48;;;;;;;11.48;6.10;;;;;;;-1.45;77.59;99523.69;5054118;28;20062;-76
2022/12/18 06:26:16;;;;;;;11.07;6.07;;;;;;;-1.73;77.90;99474.22;5041843;28;20037;-79
2022/12/18 06:28:45;;;;;;;12.88;6.03;;;;;;;-1.44;77.23;99533.09;5070226;28;20532;-77
2022/12/18 06:31:16;;;;;;;10.13;6.00;;;;;;;-1.54;77.81;99499.56;5047978;28;20128;-78
2022/12/18 06:33:55;;;;;;;10.80;5.70;;;;;;;-2.05;77.24;99430.56;5038403;28;20091;-78
2022/12/18 06:36:23;;;;;;;12.05;6.53;;;;;;;-1.50;77.48;99533.72;5033453;28;20041;-78
2022/12/18 06:38:53;;;;;;;12.73;6.22;;;;;;;-1.85;77.74;99482.31;5051336;28;20049;-78
2022/12/18 06:41:23;;;;;;;11.77;6.13;;;;;;;-1.39;78.14;99527.31;5047401;28;20061;-83
2022/12/18 06:43:49;;;;;;;12.02;6.57;;;;;;;-1.41;78.03;99510.19;5039822;28;20056;-80
2022/12/18 06:46:56;;;;;;;11.73;6.25;;;;;;;-1.57;76.09;99509.66;5068926;28;20121;-80
2022/12/18 06:49:22;;;;;;;11.43;6.10;;;;;;;-1.09;77.93;99597.28;5044520;28;20053;-81
2022/12/18 06:51:48;;;;;;;12.73;6.85;;;;;;;-1.01;77.90;99611.19;5035656;28;20412;-81
2022/12/18 06:54:14;;;;;;;11.38;6.15;;;;;;;-1.18;77.26;99581.63;5017208;28;20138;-81
2022/12/18 06:56:40;;;;;;;13.55;6.95;;;;;;;-1.08;77.96;99587.09;5016700;28;20041;-78
2022/12/18 06:59:06;;;;;;;12.75;6.15;;;;;;;-0.97;77.46;99609.59;5049747;28;20523;-80
2022/12/18 07:01:32;;;;;;;11.93;6.53;;;;;;;-0.86;77.62;99621.06;5032120;28;20041;-81
2022/12/18 07:04:03;;;;;;;11.68;6.15;;;;;;;-0.85;77.53;99619.38;5044511;28;20042;-78
2022/12/18 07:06:29;;;;;;;11.02;6.65;;;;;;;-0.93;76.84;99616.56;5053490;28;20103;-80
2022/12/18 07:08:58;;;;;;;10.48;5.60;;;;;;;-1.31;76.17;99573.53;5033368;28;20139;-80
2022/12/18 07:11:25;;;;;;;12.00;6.22;;;;;;;-1.01;77.21;99608.66;5035113;28;20049;-78
2022/12/18 07:13:52;;;;;;;13.98;6.05;;;;;;;-0.95;76.63;99621.59;5047017;28;20052;-80
2022/12/18 07:16:28;;;;;;;12.63;6.18;;;;;;;-1.30;76.23;99597.38;5017628;28;20068;-83
2022/12/18 07:18:55;;;;;;;10.50;6.05;;;;;;;-1.00;77.40;99638.47;5033389;28;20041;-82
2022/12/18 07:21:23;;;;;;;9.77;5.43;;;;;;;-1.16;77.36;99618.31;5033239;28;20048;-77
2022/12/18 07:23:49;;;;;;;11.10;6.18;;;;;;;-0.94;77.64;99643.78;5034141;28;20041;-82
2022/12/18 07:26:17;;;;;;;10.32;6.10;;;;;;;-0.83;77.35;99640.75;5036702;28;20072;-79
2022/12/18 07:28:43;;;;;;;10.48;5.80;;;;;;;-1.09;77.19;99599.84;5052651;28;20041;-79
2022/12/18 07:31:16;;;;;;;9.00;5.43;;;;;;;-1.01;76.09;99646.97;5037581;28;20358;-77
2022/12/18 07:33:42;;;;;;;10.07;5.72;;;;;;;-0.85;77.83;99665.38;5036668;28;20120;-77
2022/12/18 07:36:09;;;;;;;11.43;5.65;;;;;;;-0.81;77.39;99672.34;5038209;28;20416;-78
2022/12/18 07:38:36;;;;;;;11.13;6.43;;;;;;;-1.23;77.31;99612.09;5038091;28;20049;-79
2022/12/18 07:41:13;;;;;;;12.82;6.20;;;;;;;-1.32;76.37;99617.75;5036045;28;20141;-79
2022/12/18 07:43:42;;;;;;;10.85;5.60;;;;;;;-1.12;75.59;99671.22;5053947;28;20041;-80
2022/12/18 07:46:10;;;;;;;12.50;6.28;;;;;;;-1.00;76.75;99675.91;5039643;28;20038;-79
2022/12/18 07:48:37;;;;;;;12.77;6.50;;;;;;;-1.11;76.48;99667.88;5039726;28;20049;-81
2022/12/18 07:51:07;;;;;;;12.32;5.63;;;;;;;-1.08;76.27;99666.28;5041585;28;20063;-80
2022/12/18 07:53:38;;;;;;;12.52;6.28;;;;;;;-0.92;76.60;99685.59;5048315;28;20041;-80
2022/12/18 07:56:12;;;;;;;10.55;5.90;;;;;;;-0.83;77.00;99692.72;5041173;28;20037;-80
2022/12/18 07:58:38;;;;;;;13.98;7.07;;;;;;;-1.33;77.16;99600.69;5025054;28;20041;-79
2022/12/18 08:01:10;;;;;;;11.40;6.50;;;;;;;-2.05;76.71;99494.31;5041147;28;20034;-84
2022/12/18 08:03:37;;;;;;;11.25;5.95;;;;;;;-1.87;76.32;99507.75;5042687;28;20037;-80
2022/12/18 08:06:11;;;;;;;12.32;6.20;;;;;;;-1.32;76.65;99597.34;5067709;28;20041;-81
2022/12/18 08:09:03;;;;;;;11.32;6.20;;;;;;;-1.19;76.85;99642.06;5041632;28;20037;-80
2022/12/18 08:11:32;;;;;;;13.45;6.50;;;;;;;-2.11;76.74;99507.72;5028410;28;20120;-80
2022/12/18 08:13:58;;;;;;;12.73;7.10;;;;;;;-0.84;76.75;99731.84;5041586;28;20037;-79
2022/12/18 08:16:24;;;;;;;12.95;6.68;;;;;;;-0.92;77.55;99716.25;5038595;28;20141;-78
2022/12/18 08:18:54;;;;;;;12.73;6.90;;;;;;;-0.77;78.12;99726.16;5037368;28;20099;-80
2022/12/18 08:21:28;;;;;;;12.05;6.72;;;;;;;-1.04;77.04;99674.94;5039259;28;20535;-82
2022/12/18 08:23:59;;;;;;;12.35;7.00;;;;;;;-1.62;77.14;99581.78;5039193;28;20044;-82
2022/12/18 08:26:32;;;;;;;11.75;6.22;;;;;;;-1.44;76.68;99614.78;5038688;28;20539;-80
2022/12/18 08:28:59;;;;;;;13.93;6.03;;;;;;;-1.30;77.34;99646.78;5050995;28;20061;-79
2022/12/18 08:31:28;;;;;;;13.57;6.90;;;;;;;-0.58;77.20;99756.63;5048112;28;20053;-80
2022/12/18 08:33:56;;;;;;;13.10;6.22;;;;;;;-0.75;77.39;99746.63;5059516;28;20056;-79
2022/12/18 08:36:24;;;;;;;9.55;5.65;;;;;;;-1.06;76.80;99676.56;5047491;28;20044;-78
2022/12/18 08:38:50;;;;;;;12.32;6.75;;;;;;;-0.53;77.46;99760.19;5127002;22;20061;-76
2022/12/18 08:44:37;;;;;;;12.02;6.18;;;;;;;-0.51;77.17;99754.31;5033545;28;20586;-79
2022/12/18 08:44:49;;;;;;;;;;;;;;;;;;;;;
2022/12/18 08:47:28;;;;;;;9.90;6.00;;;;;;;-0.71;76.43;99765.53;5049978;28;20043;-83
2022/12/18 08:50:21;;;;;;;;;;;;;;;;;;;;;
2022/12/18 08:53:02;;;;;;;11.02;5.75;;;;;;;-1.59;77.14;99668.66;5047910;28;20522;-81
2022/12/18 08:55:44;;;;;;;11.65;6.30;;;;;;;-1.16;76.95;99715.34;5035537;28;20106;-78
2022/12/18 08:58:19;;;;;;;10.27;5.70;;;;;;;-1.25;76.94;99675.91;5065739;28;20043;-82
2022/12/18 09:01:14;;;;;;;12.00;5.70;;;;;;;-1.94;77.00;99556.81;5060391;28;20036;-81
2022/12/18 09:03:41;;;;;;;11.02;5.80;;;;;;;-0.80;76.85;99746.47;5044031;28;20135;-80
2022/12/18 09:06:13;;;;;;;9.35;5.35;;;;;;;-0.68;76.82;99761.38;5043381;28;20037;-80
2022/12/18 09:08:45;;;;;;;9.57;5.90;;;;;;;-1.35;76.48;99704.44;5060153;28;20134;-81
2022/12/18 09:11:44;;;;;;;16.00;7.00;;;;;;;-1.44;76.21;99663.28;5041052;28;20052;-81
2022/12/18 09:14:27;;;;;;;11.02;5.93;;;;;;;-1.39;76.40;99694.94;5061402;28;20421;-80
2022/12/18 09:17:32;;;;;;;13.13;6.25;;;;;;;-0.44;76.93;99806.53;5016394;28;20512;-80
2022/12/18 09:23:25;;;;;;;11.07;5.82;;;;;;;-0.76;77.00;99767.91;5016826;28;20045;-80
2022/12/18 09:36:00;;;;;;;12.90;5.95;;;;;;;-0.63;77.23;99815.22;4869535;29;20154;-81
2022/12/18 09:38:28;;;;;;;11.70;5.80;;;;;;;-0.67;76.96;99821.06;4852584;29;20530;-80
2022/12/18 09:44:45;;;;;;;12.35;5.72;;;;;;;-0.79;75.83;99847.03;4841645;29;20076;-82
2022/12/18 09:47:28;;;;;;;9.65;5.00;;;;;;;-0.81;77.44;99825.66;4854780;29;20060;-78
2022/12/18 09:49:56;;;;;;;;;;;;;;;-0.83;76.54;99833.25;4953209;29;20047;-79
2022/12/18 09:52:48;;;;;;;14.35;6.90;;;;;;;-1.30;77.59;99743.81;4967879;29;19918;-79
2022/12/18 09:55:30;;;;;;;11.63;6.40;;;;;;;-0.66;76.82;99849.22;4951881;29;20085;-79
2022/12/18 10:05:05;;;;;;;9.25;5.43;;;;;;;-0.67;76.82;99842.38;4989739;28;20026;-78
2022/12/18 10:08:00;;;;;;;11.02;5.72;;;;;;;-0.57;76.84;99863.16;5020849;28;20045;-79
2022/12/18 10:10:48;;;;;;;11.68;6.50;;;;;;;-0.56;76.77;99863.22;4990786;28;20045;-81
2022/12/18 10:14:05;;;;;;;15.30;5.90;;;;;;;-0.55;77.11;99871.78;5041234;28;20056;-78
2022/12/18 10:16:56;;;;;;;8.90;4.38;;;;;;;-1.87;76.87;99658.25;5030873;28;20037;-81
2022/12/18 10:19:49;;;;;;;7.97;4.65;;;;;;;-0.81;77.18;99852.06;5026969;28;20042;-78
2022/12/18 10:22:36;;;;;;;10.27;4.80;;;;;;;-0.87;76.84;99856.94;5026778;28;20048;-78
2022/12/18 10:25:46;;;;;;;9.73;5.05;;;;;;;-0.89;77.44;99850.94;5003368;28;20033;-81
2022/12/18 10:28:17;;;;;;;9.43;4.72;;;;;;;-1.41;76.79;99770.59;5055699;28;20034;-78
2022/12/18 10:30:47;;;;;;;8.68;4.57;;;;;;;-1.38;76.61;99789.47;5056228;28;20029;-77
2022/12/18 10:33:31;;;;;;;12.23;5.55;;;;;;;-1.60;77.07;99754.56;5022130;28;20101;-77
2022/12/18 10:36:00;;;;;;;10.88;5.50;;;;;;;-0.93;77.11;99883.13;5036118;28;20183;-79
2022/12/18 10:38:31;;;;;;;8.43;4.50;;;;;;;-2.37;76.89;99645.22;5003030;28;20033;-81
2022/12/18 10:41:25;;;;;;;9.48;5.05;;;;;;;-0.99;77.48;99887.13;5036728;28;20053;-78
2022/12/18 10:44:26;;;;;;;9.60;4.97;;;;;;;-1.08;76.28;99882.53;5027161;28;20056;-80
2022/12/18 10:47:15;;;;;;;7.85;4.32;;;;;;;-1.16;76.38;99878.81;5029028;28;20041;-78
2022/12/18 10:49:50;;;;;;;9.73;4.70;;;;;;;-1.53;77.85;99812.72;5009090;28;20124;-79
2022/12/18 10:52:22;;;;;;;9.27;4.05;;;;;;;-1.45;76.80;99830.03;5031010;28;20048;-81
2022/12/18 10:54:58;;;;;;;9.23;4.93;;;;;;;-1.00;77.61;99919.50;5022097;28;20045;-81
2022/12/18 10:57:34;;;;;;;9.98;4.53;;;;;;;-0.98;77.68;99935.72;5054991;28;20095;-82
2022/12/18 11:00:27;;;;;;;7.73;4.43;;;;;;;-1.26;77.45;99883.56;5033532;28;20049;-80
2022/12/18 11:03:35;;;;;;;11.05;4.97;;;;;;;-1.10;77.73;99912.25;5017037;28;20053;-79
2022/12/18 11:06:24;;;;;;;10.65;5.38;;;;;;;-2.32;76.96;99704.94;4970155;29;20147;-82
2022/12/18 11:09:21;;;;;;;11.23;5.60;;;;;;;-1.80;76.64;99769.09;4954034;29;20565;-81
2022/12/18 11:16:25;;;;;;;10.00;4.25;;;;;;;-2.18;76.95;99725.91;4953666;28;20087;-81
2022/12/18 11:23:52;;;;;;;10.68;5.35;;;;;;;-2.54;76.66;99697.19;4954239;29;20075;-80
2022/12/18 11:26:35;;;;;;;9.55;4.88;;;;;;;-1.22;77.51;99913.53;4956125;29;20190;-80
2022/12/18 11:29:27;;;;;;;11.70;5.50;;;;;;;-0.91;76.49;99963.28;4927558;29;20043;-79
2022/12/18 11:32:13;;;;;;;10.30;4.53;;;;;;;-1.00;76.85;99962.94;4951779;29;20045;-82
2022/12/18 11:34:49;;;;;;;9.55;4.72;;;;;;;-1.00;76.96;99965.47;4952746;29;20146;-78
2022/12/18 11:37:30;;;;;;;;;;;;;;;;;;;;;
2022/12/18 11:40:27;;;;;;;9.10;4.85;;;;;;;-2.32;76.51;99806.91;4988535;28;20036;-79
2022/12/18 11:43:13;;;;;;;12.45;5.07;;;;;;;-1.49;77.71;99932.81;4988196;28;20057;-80
2022/12/18 11:46:27;;;;;;;11.38;4.30;;;;;;;-1.13;78.42;99981.09;5031036;28;20037;-80
2022/12/18 11:49:29;;;;;;;;;;;;;;;;;;;;;
2022/12/18 11:52:41;;;;;;;9.40;4.57;;;;;;;-1.18;77.55;100001.34;5015052;28;20048;-82
2022/12/18 11:55:28;;;;;;;11.05;4.60;;;;;;;-1.04;77.92;100007.03;5035874;28;20473;-79
2022/12/18 11:59:04;;;;;;;7.55;4.40;;;;;;;-0.94;78.33;100004.03;4999968;28;20049;-82
2022/12/18 12:02:27;;;;;;;8.38;4.72;;;;;;;-1.00;78.16;100016.56;5017445;28;20409;-81
2022/12/18 12:05:21;;;;;;;7.38;4.15;;;;;;;-1.04;77.86;100022.34;5001030;28;20050;-77
2022/12/18 12:08:09;;;;;;;10.05;4.80;;;;;;;-0.97;78.29;100033.69;5050017;28;20081;-82
2022/12/18 12:10:58;;;;;;;7.60;4.22;;;;;;;-1.99;77.12;99893.31;5140430;22;20038;-83
2022/12/18 12:14:03;;;;;;;8.77;4.22;;;;;;;-1.53;77.16;99995.59;5117422;22;20024;-83
2022/12/18 12:16:42;;;;;;;7.78;3.80;;;;;;;-1.28;77.84;100040.06;5052319;28;20055;-77
2022/12/18 12:19:36;;;;;;;7.55;4.40;;;;;;;-1.29;77.78;100045.97;5052654;28;20041;-79
2022/12/18 12:22:17;;;;;;;13.68;4.43;;;;;;;-1.39;77.20;100049.81;5053520;28;20405;-80
2022/12/18 12:25:12;;;;;;;8.07;4.47;;;;;;;-1.64;77.52;100030.00;5052704;28;20061;-83
2022/12/18 12:28:06;;;;;;;11.25;4.28;;;;;;;-1.89;78.36;99973.69;5074251;28;20045;-78
2022/12/18 12:30:57;;;;;;;10.15;4.65;;;;;;;-1.78;77.84;99988.56;5056694;28;20021;-80
2022/12/18 12:33:33;;;;;;;6.97;4.20;;;;;;;-1.40;77.93;100054.06;5061647;28;20049;-78
2022/12/18 12:36:21;;;;;;;9.70;4.40;;;;;;;-1.45;77.70;100052.13;5074206;28;20116;-79
2022/12/18 12:49:01;;;;;;;9.00;4.47;;;;;;;-1.30;78.53;100091.06;4964043;29;20096;-81
2022/12/18 13:00:42;;;;;;;8.82;3.55;;;;;;;-1.59;78.64;100075.34;4979710;23;20059;-77
2022/12/18 13:03:35;;;;;;;6.85;3.38;;;;;;;-2.31;77.96;99979.44;4981537;23;20095;31